Terminal Aerodrome Forecast
Issued by NWS Miami, FL

Home | Current Version | Previous Version | Text Only | Print | Product List | Glossary On
Versions: 1 2 3 4 5 6 7 8 9 10 11 12 13 14 15 16 17 18 19 20 21 22 23 24
000
FTUS42 KMFL 251134
TAFAPF
TAF
KAPF 251134Z 2512/2612 VRB03KT P6SM SCT040 SCT250
     FM251600 26006KT P6SM SCT030 BKN250
     FM251800 28008KT P6SM VCTS SCT030CB SCT050
     FM260000 VRB03KT P6SM SCT030=

USA.gov is the U.S. government's official web portal to all federal, state and local government web resources and services.